createdAt,value
2017-03-07T00:00:15.887Z,0
2017-03-07T00:01:15.860Z,0
2017-03-07T00:02:16.346Z,0
2017-03-07T00:03:15.870Z,0
2017-03-07T00:04:15.830Z,0
2017-03-07T00:05:15.846Z,0
2017-03-07T00:06:15.446Z,0
2017-03-07T00:07:15.908Z,0
2017-03-07T00:08:15.806Z,0
2017-03-07T00:09:15.192Z,0
2017-03-07T00:10:15.251Z,0
2017-03-07T00:11:16.053Z,0
2017-03-07T00:12:15.969Z,0
2017-03-07T00:13:16.293Z,0
2017-03-07T00:14:15.975Z,0
2017-03-07T00:15:15.576Z,0
2017-03-07T00:16:15.963Z,0
2017-03-07T00:17:16.031Z,0
2017-03-07T00:18:16.013Z,0
2017-03-07T00:19:16.042Z,0
2017-03-07T00:20:15.545Z,0
2017-03-07T00:21:17.482Z,0
2017-03-07T00:22:16.016Z,0
2017-03-07T00:23:16.065Z,0
2017-03-07T00:24:16.602Z,0
2017-03-07T00:25:16.059Z,0
2017-03-07T00:26:15.819Z,0
2017-03-07T00:27:16.473Z,0
2017-03-07T00:28:15.239Z,0
2017-03-07T00:29:15.268Z,0
2017-03-07T00:30:16.163Z,0
2017-03-07T00:31:15.747Z,0
2017-03-07T00:32:16.105Z,0
2017-03-07T00:33:15.287Z,0
2017-03-07T00:34:15.678Z,0
2017-03-07T00:35:16.584Z,0
2017-03-07T00:36:15.717Z,0
2017-03-07T00:37:16.146Z,0
2017-03-07T00:38:15.249Z,0
2017-03-07T00:39:16.999Z,0
2017-03-07T00:40:15.759Z,0
2017-03-07T00:41:16.364Z,0
2017-03-07T00:42:17.026Z,0
2017-03-07T00:43:16.130Z,0
2017-03-07T00:44:15.854Z,0
2017-03-07T00:45:16.226Z,0
2017-03-07T00:46:16.855Z,0
2017-03-07T00:47:16.237Z,0
2017-03-07T00:48:16.034Z,0
2017-03-07T00:49:15.924Z,0
2017-03-07T00:50:16.230Z,0
2017-03-07T00:51:16.154Z,0
2017-03-07T00:52:15.446Z,0
2017-03-07T00:53:15.858Z,0
2017-03-07T00:54:16.310Z,0
2017-03-07T00:55:16.264Z,0
2017-03-07T00:56:16.268Z,0
2017-03-07T00:57:19.521Z,0
2017-03-07T00:58:16.288Z,0
2017-03-07T00:59:16.101Z,0
2017-03-07T01:00:16.255Z,0
2017-03-07T01:01:16.222Z,0
2017-03-07T01:02:15.875Z,0
2017-03-07T01:03:16.215Z,0
2017-03-07T01:04:16.285Z,0
2017-03-07T01:05:16.297Z,0
2017-03-07T01:06:16.018Z,0
2017-03-07T01:07:16.298Z,0
2017-03-07T01:08:16.992Z,0
2017-03-07T01:09:16.311Z,0
2017-03-07T01:10:16.266Z,0
2017-03-07T01:11:16.260Z,0
2017-03-07T01:12:16.763Z,0
2017-03-07T01:13:16.274Z,0
2017-03-07T01:14:15.542Z,0
2017-03-07T01:15:16.398Z,0
2017-03-07T01:16:16.475Z,0
2017-03-07T01:17:16.344Z,0
2017-03-07T01:18:16.316Z,0
2017-03-07T01:19:16.756Z,0
2017-03-07T01:20:16.464Z,0
2017-03-07T01:21:16.435Z,0
2017-03-07T01:22:16.087Z,0
2017-03-07T01:23:16.342Z,0
2017-03-07T01:24:16.038Z,0
2017-03-07T01:25:15.946Z,0
2017-03-07T01:26:16.397Z,0
2017-03-07T01:27:16.438Z,0
2017-03-07T01:28:16.146Z,0
2017-03-07T01:29:16.546Z,0
2017-03-07T01:30:16.838Z,0
2017-03-07T01:31:16.072Z,0
2017-03-07T01:32:18.742Z,0
2017-03-07T01:33:16.079Z,0
2017-03-07T01:34:16.403Z,0
2017-03-07T01:35:16.877Z,0
2017-03-07T01:36:16.469Z,0
2017-03-07T01:37:16.126Z,0
2017-03-07T01:38:16.837Z,0
2017-03-07T01:39:16.554Z,0
2017-03-07T01:40:15.745Z,0
2017-03-07T01:41:17.099Z,0
2017-03-07T01:42:16.744Z,0
2017-03-07T01:43:16.434Z,0
2017-03-07T01:44:16.615Z,0
2017-03-07T01:45:17.279Z,0
2017-03-07T01:46:15.796Z,0
2017-03-07T01:47:16.138Z,0
2017-03-07T01:48:16.502Z,0
2017-03-07T01:49:16.202Z,0
2017-03-07T01:50:16.156Z,0
2017-03-07T01:51:16.559Z,0
2017-03-07T01:52:17.398Z,0
2017-03-07T01:53:16.529Z,0
2017-03-07T01:54:16.592Z,0
2017-03-07T01:55:16.732Z,0
2017-03-07T01:56:16.348Z,0
2017-03-07T01:57:16.220Z,0
2017-03-07T01:58:16.620Z,0
2017-03-07T01:59:16.559Z,0
2017-03-07T02:00:16.680Z,0
2017-03-07T02:01:16.730Z,0
2017-03-07T02:02:16.878Z,0
2017-03-07T02:03:17.395Z,0
2017-03-07T02:04:15.870Z,0
2017-03-07T02:05:16.655Z,0
2017-03-07T02:06:16.204Z,0
2017-03-07T02:07:16.331Z,0
2017-03-07T02:08:16.368Z,0
2017-03-07T02:09:16.756Z,0
2017-03-07T02:10:17.151Z,0
2017-03-07T02:11:15.969Z,0
2017-03-07T02:12:16.272Z,0
2017-03-07T02:13:16.745Z,0
2017-03-07T02:14:17.490Z,0
2017-03-07T02:15:16.707Z,0
2017-03-07T02:16:16.666Z,0
2017-03-07T02:17:16.811Z,0
2017-03-07T02:18:15.964Z,0
2017-03-07T02:19:16.834Z,0
2017-03-07T02:20:16.434Z,0
2017-03-07T02:21:16.759Z,0
2017-03-07T02:22:16.775Z,0
2017-03-07T02:23:16.759Z,0
2017-03-07T02:24:16.780Z,0
2017-03-07T02:25:17.490Z,0
2017-03-07T02:26:16.336Z,0
2017-03-07T02:27:16.404Z,0
2017-03-07T02:28:16.864Z,0
2017-03-07T02:29:16.829Z,0
2017-03-07T02:30:16.078Z,0
2017-03-07T02:31:16.023Z,0
2017-03-07T02:32:16.476Z,0
2017-03-07T02:33:16.140Z,0
2017-03-07T02:34:16.386Z,0
2017-03-07T02:35:16.893Z,0
2017-03-07T02:36:17.406Z,0
2017-03-07T02:37:17.016Z,0
2017-03-07T02:38:16.585Z,0
2017-03-07T02:39:16.865Z,0
2017-03-07T02:40:16.484Z,0
2017-03-07T02:41:16.888Z,0
2017-03-07T02:42:16.800Z,0
2017-03-07T02:43:16.912Z,0
2017-03-07T02:44:16.433Z,0
2017-03-07T02:45:17.234Z,0
2017-03-07T02:46:16.481Z,0
2017-03-07T02:47:17.520Z,0
2017-03-07T02:48:16.525Z,0
2017-03-07T02:49:17.102Z,0
2017-03-07T02:50:16.504Z,0
2017-03-07T02:51:16.941Z,0
2017-03-07T02:52:17.043Z,0
2017-03-07T02:53:16.923Z,0
2017-03-07T02:54:17.397Z,0
2017-03-07T02:55:16.910Z,0
2017-03-07T02:56:16.530Z,0
2017-03-07T02:57:16.596Z,0
2017-03-07T02:58:17.442Z,0
2017-03-07T02:59:16.608Z,0
2017-03-07T03:00:17.165Z,0
2017-03-07T03:01:17.060Z,0
2017-03-07T03:02:17.010Z,0
2017-03-07T03:03:16.727Z,0
2017-03-07T03:04:17.071Z,0
2017-03-07T03:05:17.037Z,0
2017-03-07T03:06:16.992Z,0
2017-03-07T03:07:16.590Z,0
2017-03-07T03:08:16.724Z,0
2017-03-07T03:09:17.822Z,0
2017-03-07T03:10:17.176Z,0
2017-03-07T03:11:16.783Z,0
2017-03-07T03:12:16.646Z,0
2017-03-07T03:13:17.140Z,0
2017-03-07T03:14:17.100Z,0
2017-03-07T03:15:17.037Z,0
2017-03-07T03:16:17.160Z,0
2017-03-07T03:17:17.164Z,0
2017-03-07T03:18:16.792Z,0
2017-03-07T03:19:17.167Z,0
2017-03-07T03:20:17.729Z,0
2017-03-07T03:21:16.737Z,0
2017-03-07T03:22:17.082Z,0
2017-03-07T03:23:16.754Z,0
2017-03-07T03:24:17.177Z,0
2017-03-07T03:25:16.717Z,0
2017-03-07T03:26:17.167Z,0
2017-03-07T03:27:16.491Z,0
2017-03-07T03:28:17.188Z,0
2017-03-07T03:29:16.798Z,0
2017-03-07T03:30:16.457Z,0
2017-03-07T03:31:17.905Z,0
2017-03-07T03:32:16.354Z,0
2017-03-07T03:33:17.186Z,0
2017-03-07T03:34:16.814Z,0
2017-03-07T03:35:16.891Z,0
2017-03-07T03:36:16.905Z,0
2017-03-07T03:37:16.930Z,0
2017-03-07T03:38:16.392Z,0
2017-03-07T03:39:17.250Z,0
2017-03-07T03:40:17.316Z,0
2017-03-07T03:41:16.848Z,0
2017-03-07T03:42:18.128Z,0
2017-03-07T03:43:16.843Z,0
2017-03-07T03:44:16.877Z,0
2017-03-07T03:45:17.351Z,0
2017-03-07T03:46:17.346Z,0
2017-03-07T03:47:16.948Z,0
2017-03-07T03:48:16.957Z,0
2017-03-07T03:49:17.323Z,0
2017-03-07T03:50:17.827Z,0
2017-03-07T03:51:16.539Z,0
2017-03-07T03:52:17.396Z,0
2017-03-07T03:53:17.892Z,0
2017-03-07T03:54:16.993Z,0
2017-03-07T03:55:17.444Z,0
2017-03-07T03:56:17.410Z,0
2017-03-07T03:57:17.363Z,0
2017-03-07T03:58:16.525Z,0
2017-03-07T03:59:17.375Z,0
2017-03-07T04:00:18.576Z,0
2017-03-07T04:01:16.656Z,0
2017-03-07T04:02:16.990Z,0
2017-03-07T04:03:17.019Z,0
2017-03-07T04:04:18.156Z,0
2017-03-07T04:05:17.059Z,0
2017-03-07T04:06:17.498Z,0
2017-03-07T04:07:17.171Z,0
2017-03-07T04:08:17.075Z,0
2017-03-07T04:09:17.086Z,0
2017-03-07T04:10:17.439Z,0
2017-03-07T04:11:17.519Z,0
2017-03-07T04:12:17.451Z,0
2017-03-07T04:13:17.144Z,0
2017-03-07T04:14:17.490Z,0
2017-03-07T04:15:18.417Z,0
2017-03-07T04:16:17.142Z,0
2017-03-07T04:17:17.491Z,0
2017-03-07T04:18:17.549Z,0
2017-03-07T04:19:17.544Z,0
2017-03-07T04:20:17.468Z,0
2017-03-07T04:21:17.167Z,0
2017-03-07T04:22:17.564Z,0
2017-03-07T04:23:16.718Z,0
2017-03-07T04:24:17.186Z,0
2017-03-07T04:25:17.161Z,0
2017-03-07T04:26:18.376Z,0
2017-03-07T04:27:17.558Z,0
2017-03-07T04:28:17.868Z,0
2017-03-07T04:29:17.612Z,0
2017-03-07T04:30:17.522Z,0
2017-03-07T04:31:17.539Z,0
2017-03-07T04:32:17.697Z,0
2017-03-07T04:33:17.627Z,0
2017-03-07T04:34:17.602Z,0
2017-03-07T04:35:17.614Z,0
2017-03-07T04:36:17.135Z,0
2017-03-07T04:37:18.965Z,0
2017-03-07T04:38:17.308Z,0
2017-03-07T04:39:18.278Z,0
2017-03-07T04:40:17.252Z,0
2017-03-07T04:41:17.696Z,0
2017-03-07T04:42:17.589Z,0
2017-03-07T04:43:17.611Z,0
2017-03-07T04:44:17.681Z,0
2017-03-07T04:45:17.705Z,0
2017-03-07T04:46:17.729Z,0
2017-03-07T04:47:17.699Z,0
2017-03-07T04:48:19.176Z,0
2017-03-07T04:49:17.235Z,0
2017-03-07T04:50:18.171Z,0
2017-03-07T04:51:17.819Z,0
2017-03-07T04:52:17.712Z,0
2017-03-07T04:53:17.766Z,0
2017-03-07T04:54:17.725Z,0
2017-03-07T04:55:17.430Z,0
2017-03-07T04:56:17.830Z,0
2017-03-07T04:57:17.744Z,0
2017-03-07T04:58:17.699Z,0
2017-03-07T04:59:19.131Z,0
2017-03-07T05:00:17.729Z,0
2017-03-07T05:01:18.421Z,0
2017-03-07T05:02:17.764Z,0
2017-03-07T05:03:17.429Z,0
2017-03-07T05:04:17.744Z,0
2017-03-07T05:05:17.733Z,0
2017-03-07T05:06:17.795Z,0
2017-03-07T05:07:18.318Z,0
2017-03-07T05:08:17.840Z,0
2017-03-07T05:09:18.072Z,0
2017-03-07T05:10:19.402Z,0
2017-03-07T05:11:17.821Z,0
2017-03-07T05:12:18.775Z,0
2017-03-07T05:13:17.863Z,0
2017-03-07T05:14:17.438Z,0
2017-03-07T05:15:17.858Z,0
2017-03-07T05:16:17.537Z,0
2017-03-07T05:17:17.083Z,0
2017-03-07T05:18:17.818Z,0
2017-03-07T05:19:17.987Z,0
2017-03-07T05:20:17.947Z,0
2017-03-07T05:21:19.552Z,0
2017-03-07T05:22:17.898Z,0
2017-03-07T05:23:18.851Z,0
2017-03-07T05:24:17.630Z,0
2017-03-07T05:25:17.585Z,0
2017-03-07T05:26:17.521Z,0
2017-03-07T05:27:18.222Z,0
2017-03-07T05:28:17.550Z,0
2017-03-07T05:29:17.595Z,0
2017-03-07T05:30:17.945Z,0
2017-03-07T05:31:17.517Z,0
2017-03-07T05:32:18.005Z,0
2017-03-07T05:33:18.112Z,0
2017-03-07T05:34:19.026Z,0
2017-03-07T05:35:17.530Z,0
2017-03-07T05:36:17.640Z,0
2017-03-07T05:37:17.665Z,0
2017-03-07T05:38:17.212Z,0
2017-03-07T05:39:17.972Z,0
2017-03-07T05:40:17.606Z,0
2017-03-07T05:41:18.136Z,0
2017-03-07T05:42:18.025Z,0
2017-03-07T05:43:17.337Z,0
2017-03-07T05:44:18.047Z,0
2017-03-07T05:45:19.939Z,0
2017-03-07T05:46:17.646Z,0
2017-03-07T05:47:18.055Z,0
2017-03-07T05:48:17.720Z,0
2017-03-07T05:49:17.662Z,0
2017-03-07T05:50:18.067Z,0
2017-03-07T05:51:18.136Z,0
2017-03-07T05:52:17.959Z,0
2017-03-07T05:53:17.668Z,0
2017-03-07T05:54:17.714Z,0
2017-03-07T05:55:18.821Z,0
2017-03-07T05:56:19.365Z,0
2017-03-07T05:57:17.663Z,0
2017-03-07T05:58:17.735Z,0
2017-03-07T05:59:18.242Z,0
2017-03-07T06:00:18.137Z,0
2017-03-07T06:01:18.300Z,0
2017-03-07T06:02:18.250Z,0
2017-03-07T06:03:17.607Z,0
2017-03-07T06:04:17.764Z,0
2017-03-07T06:05:18.172Z,0
2017-03-07T06:06:18.196Z,0
2017-03-07T06:07:19.023Z,0
2017-03-07T06:08:18.240Z,0
2017-03-07T06:09:18.196Z,0
2017-03-07T06:10:17.825Z,0
2017-03-07T06:11:18.595Z,0
2017-03-07T06:12:18.323Z,0
2017-03-07T06:13:18.235Z,0
2017-03-07T06:14:18.212Z,0
2017-03-07T06:15:19.690Z,0
2017-03-07T06:16:18.186Z,0
2017-03-07T06:17:17.909Z,0
2017-03-07T06:18:19.728Z,0
2017-03-07T06:19:18.251Z,0
2017-03-07T06:20:18.288Z,0
2017-03-07T06:21:18.226Z,0
2017-03-07T06:22:18.308Z,0
2017-03-07T06:23:18.272Z,0
2017-03-07T06:24:17.936Z,0
2017-03-07T06:25:18.591Z,0
2017-03-07T06:26:17.858Z,0
2017-03-07T06:27:18.256Z,0
2017-03-07T06:28:18.451Z,0
2017-03-07T06:29:19.294Z,0
2017-03-07T06:30:18.348Z,0
2017-03-07T06:31:17.927Z,0
2017-03-07T06:32:18.368Z,0
2017-03-07T06:33:18.435Z,0
2017-03-07T06:34:18.400Z,0
2017-03-07T06:35:18.069Z,0
2017-03-07T06:36:18.218Z,0
2017-03-07T06:37:18.460Z,0
2017-03-07T06:38:18.617Z,0
2017-03-07T06:39:17.926Z,0
2017-03-07T06:40:19.641Z,0
2017-03-07T06:41:18.519Z,0
2017-03-07T06:42:18.508Z,0
2017-03-07T06:43:18.271Z,0
2017-03-07T06:44:18.124Z,0
2017-03-07T06:45:18.428Z,0
2017-03-07T06:46:18.434Z,0
2017-03-07T06:47:18.595Z,0
2017-03-07T06:48:17.743Z,0
2017-03-07T06:49:18.236Z,0
2017-03-07T06:50:18.024Z,0
2017-03-07T06:51:18.510Z,0
2017-03-07T06:52:18.409Z,0
2017-03-07T06:53:18.470Z,0
2017-03-07T06:54:18.616Z,0
2017-03-07T06:55:18.139Z,0
2017-03-07T06:56:18.445Z,0
2017-03-07T06:57:18.158Z,0
2017-03-07T06:58:19.327Z,0
2017-03-07T06:59:18.514Z,0
2017-03-07T07:00:18.578Z,0
2017-03-07T07:01:18.657Z,0
2017-03-07T07:02:18.231Z,0
2017-03-07T07:03:18.176Z,0
2017-03-07T07:04:18.637Z,0
2017-03-07T07:05:18.543Z,0
2017-03-07T07:06:18.718Z,0
2017-03-07T07:07:18.707Z,0
2017-03-07T07:08:18.572Z,0
2017-03-07T07:09:19.722Z,0
2017-03-07T07:10:19.072Z,0
2017-03-07T07:11:19.123Z,0
2017-03-07T07:12:19.685Z,0
2017-03-07T07:13:18.642Z,0
2017-03-07T07:14:18.739Z,5
2017-03-07T07:15:17.881Z,5
2017-03-07T07:16:17.924Z,5
2017-03-07T07:17:18.685Z,5
2017-03-07T07:18:18.579Z,0
2017-03-07T07:19:17.929Z,5
2017-03-07T07:20:19.584Z,5
2017-03-07T07:21:18.799Z,0
2017-03-07T07:22:19.249Z,0
2017-03-07T07:23:18.710Z,0
2017-03-07T07:24:18.716Z,0
2017-03-07T07:25:18.820Z,0
2017-03-07T07:26:18.396Z,0
2017-03-07T07:27:18.524Z,0
2017-03-07T07:28:18.649Z,0
2017-03-07T07:29:18.798Z,0
2017-03-07T07:30:18.838Z,5
2017-03-07T07:31:19.704Z,0
2017-03-07T07:32:18.849Z,5
2017-03-07T07:33:19.705Z,5
2017-03-07T07:34:18.875Z,5
2017-03-07T07:35:18.749Z,5
2017-03-07T07:36:18.797Z,5
2017-03-07T07:37:18.476Z,5
2017-03-07T07:38:18.904Z,5
2017-03-07T07:39:18.550Z,5
2017-03-07T07:40:18.471Z,5
2017-03-07T07:41:18.910Z,10
2017-03-07T07:42:18.822Z,10
2017-03-07T07:43:18.340Z,10
2017-03-07T07:44:19.982Z,10
2017-03-07T07:45:18.481Z,10
2017-03-07T07:46:19.342Z,10
2017-03-07T07:47:18.855Z,10
2017-03-07T07:48:18.900Z,10
2017-03-07T07:49:18.893Z,10
2017-03-07T07:50:18.548Z,10
2017-03-07T07:51:18.086Z,10
2017-03-07T07:52:18.560Z,10
2017-03-07T07:53:18.958Z,10
2017-03-07T07:54:18.617Z,10
2017-03-07T07:55:20.069Z,10
2017-03-07T07:56:18.540Z,10
2017-03-07T07:57:19.325Z,10
2017-03-07T07:58:19.228Z,10
2017-03-07T07:59:19.037Z,10
2017-03-07T08:00:19.023Z,10
2017-03-07T08:01:19.061Z,10
2017-03-07T08:02:18.974Z,5
2017-03-07T08:03:18.584Z,10
2017-03-07T08:04:19.039Z,10
2017-03-07T08:05:18.718Z,10
2017-03-07T08:06:20.130Z,10
2017-03-07T08:07:19.051Z,10
2017-03-07T08:08:19.420Z,10
2017-03-07T08:09:18.916Z,5
2017-03-07T08:10:18.773Z,5
2017-03-07T08:11:19.136Z,5
2017-03-07T08:12:18.708Z,5
2017-03-07T08:13:19.185Z,5
2017-03-07T08:14:19.138Z,5
2017-03-07T08:15:18.881Z,5
2017-03-07T08:16:18.755Z,5
2017-03-07T08:17:20.561Z,5
2017-03-07T08:18:18.673Z,10
2017-03-07T08:19:19.859Z,10
2017-03-07T08:20:18.816Z,15
2017-03-07T08:21:18.768Z,15
2017-03-07T08:22:18.804Z,15
2017-03-07T08:23:19.110Z,15
2017-03-07T08:24:19.221Z,15
2017-03-07T08:25:19.189Z,10
2017-03-07T08:26:18.778Z,10
2017-03-07T08:27:18.787Z,5
2017-03-07T08:28:19.088Z,5
2017-03-07T08:29:18.751Z,5
2017-03-07T08:30:18.888Z,10
2017-03-07T08:31:19.292Z,10
2017-03-07T08:32:19.214Z,10
2017-03-07T08:33:19.180Z,5
2017-03-07T08:34:19.299Z,5
2017-03-07T08:35:18.920Z,5
2017-03-07T08:36:18.893Z,5
2017-03-07T08:37:19.800Z,5
2017-03-07T08:38:19.204Z,5
2017-03-07T08:39:19.193Z,5
2017-03-07T08:40:18.479Z,5
2017-03-07T08:41:20.841Z,5
2017-03-07T08:42:18.953Z,5
2017-03-07T08:43:19.379Z,5
2017-03-07T08:44:19.385Z,5
2017-03-07T08:45:19.304Z,5
2017-03-07T08:46:18.529Z,5
2017-03-07T08:47:18.970Z,5
2017-03-07T08:48:20.019Z,5
2017-03-07T08:49:19.537Z,5
2017-03-07T08:50:19.136Z,5
2017-03-07T08:51:19.446Z,5
2017-03-07T08:52:18.853Z,5
2017-03-07T08:53:19.368Z,5
2017-03-07T08:54:18.972Z,5
2017-03-07T08:55:19.384Z,5
2017-03-07T08:56:18.535Z,5
2017-03-07T08:57:19.312Z,5
2017-03-07T08:58:19.384Z,5
2017-03-07T08:59:20.269Z,5
2017-03-07T09:00:19.437Z,5
2017-03-07T09:01:19.583Z,5
2017-03-07T09:02:19.430Z,5
2017-03-07T09:03:19.028Z,5
2017-03-07T09:04:19.448Z,5
2017-03-07T09:05:19.047Z,10
2017-03-07T09:06:19.114Z,10
2017-03-07T09:07:19.471Z,10
2017-03-07T09:08:19.463Z,5
2017-03-07T09:09:19.479Z,5
2017-03-07T09:10:20.502Z,5
2017-03-07T09:11:19.540Z,5
2017-03-07T09:12:19.778Z,5
2017-03-07T09:13:19.449Z,5
2017-03-07T09:14:19.579Z,5
2017-03-07T09:15:19.532Z,5
2017-03-07T09:16:18.225Z,5
2017-03-07T09:17:19.504Z,5
2017-03-07T09:18:19.172Z,5
2017-03-07T09:19:18.805Z,5
2017-03-07T09:20:19.665Z,5
2017-03-07T09:21:19.925Z,5
2017-03-07T09:22:19.864Z,5
2017-03-07T09:23:20.284Z,5
2017-03-07T09:24:19.521Z,5
2017-03-07T09:25:19.594Z,5
2017-03-07T09:26:19.131Z,5
2017-03-07T09:27:19.517Z,5
2017-03-07T09:28:19.214Z,10
2017-03-07T09:29:19.516Z,10
2017-03-07T09:30:18.937Z,10
2017-03-07T09:31:19.219Z,15
2017-03-07T09:32:20.503Z,15
2017-03-07T09:33:19.298Z,15
2017-03-07T09:34:20.567Z,10
2017-03-07T09:35:19.700Z,10
2017-03-07T09:36:19.781Z,10
2017-03-07T09:37:19.304Z,10
2017-03-07T09:38:19.711Z,10
2017-03-07T09:39:19.271Z,10
2017-03-07T09:40:19.683Z,10
2017-03-07T09:41:19.728Z,10
2017-03-07T09:42:19.263Z,15
2017-03-07T09:43:19.707Z,15
2017-03-07T09:44:19.658Z,15
2017-03-07T09:45:24.038Z,15
2017-03-07T09:46:19.661Z,15
2017-03-07T09:47:20.127Z,20
2017-03-07T09:48:19.303Z,20
2017-03-07T09:49:19.804Z,20
2017-03-07T09:50:19.809Z,20
2017-03-07T09:51:19.469Z,25
2017-03-07T09:52:19.757Z,25
2017-03-07T09:53:19.369Z,30
2017-03-07T09:54:19.677Z,35
2017-03-07T09:55:19.902Z,35
2017-03-07T09:56:21.858Z,35
2017-03-07T09:57:19.501Z,35
2017-03-07T09:58:20.263Z,35
2017-03-07T09:59:19.679Z,40
2017-03-07T10:00:19.326Z,35
2017-03-07T10:01:19.821Z,35
2017-03-07T10:02:19.771Z,35
2017-03-07T10:03:19.456Z,35
2017-03-07T10:04:19.498Z,35
2017-03-07T10:05:19.471Z,35
2017-03-07T10:06:19.928Z,35
2017-03-07T10:07:21.248Z,30
2017-03-07T10:08:19.475Z,30
2017-03-07T10:09:20.002Z,30
2017-03-07T10:10:19.092Z,30
2017-03-07T10:11:18.760Z,25
2017-03-07T10:12:19.811Z,25
2017-03-07T10:13:19.618Z,25
2017-03-07T10:14:19.375Z,25
2017-03-07T10:15:19.519Z,25
2017-03-07T10:16:20.175Z,20
2017-03-07T10:17:19.981Z,20
2017-03-07T10:18:21.566Z,25
2017-03-07T10:19:19.903Z,25
2017-03-07T10:20:20.628Z,20
2017-03-07T10:21:19.917Z,20
2017-03-07T10:22:20.020Z,20
2017-03-07T10:23:19.592Z,20
2017-03-07T10:24:19.585Z,20
2017-03-07T10:25:19.599Z,20
2017-03-07T10:26:20.070Z,15
2017-03-07T10:27:20.046Z,15
2017-03-07T10:28:19.977Z,15
2017-03-07T10:29:21.591Z,20
2017-03-07T10:30:20.131Z,20
2017-03-07T10:31:20.904Z,20
2017-03-07T10:32:19.616Z,20
2017-03-07T10:33:19.557Z,20
2017-03-07T10:34:19.636Z,20
2017-03-07T10:35:20.121Z,20
2017-03-07T10:36:19.760Z,20
2017-03-07T10:37:19.136Z,20
2017-03-07T10:38:19.461Z,25
2017-03-07T10:39:20.148Z,25
2017-03-07T10:40:20.164Z,25
2017-03-07T10:41:19.664Z,25
2017-03-07T10:42:20.633Z,20
2017-03-07T10:43:19.373Z,20
2017-03-07T10:44:19.758Z,20
2017-03-07T10:45:20.188Z,20
2017-03-07T10:46:20.136Z,20
2017-03-07T10:47:19.924Z,25
2017-03-07T10:48:20.115Z,25
2017-03-07T10:49:19.977Z,30
2017-03-07T10:50:20.099Z,35
2017-03-07T10:51:20.020Z,40
2017-03-07T10:52:20.263Z,50
2017-03-07T10:53:20.970Z,50
2017-03-07T10:54:19.416Z,45
2017-03-07T10:55:20.200Z,40
2017-03-07T10:56:19.809Z,35
2017-03-07T10:57:19.791Z,40
2017-03-07T10:58:19.166Z,40
2017-03-07T10:59:19.944Z,40
2017-03-07T11:00:20.839Z,35
2017-03-07T11:01:20.211Z,25
2017-03-07T11:02:19.978Z,20
2017-03-07T11:03:19.514Z,20
2017-03-07T11:04:21.239Z,15
2017-03-07T11:05:19.945Z,15
2017-03-07T11:06:20.280Z,15
2017-03-07T11:07:20.288Z,15
2017-03-07T11:08:20.210Z,15
2017-03-07T11:09:20.274Z,15
2017-03-07T11:10:20.671Z,15
2017-03-07T11:11:20.634Z,15
2017-03-07T11:12:19.428Z,20
2017-03-07T11:13:20.429Z,25
2017-03-07T11:14:20.388Z,25
2017-03-07T11:15:19.943Z,30
2017-03-07T11:16:19.951Z,30
2017-03-07T11:17:20.308Z,30
2017-03-07T11:18:20.385Z,30
2017-03-07T11:19:19.929Z,30
2017-03-07T11:20:19.894Z,30
2017-03-07T11:21:20.361Z,25
2017-03-07T11:22:21.554Z,25
2017-03-07T11:23:20.375Z,20
2017-03-07T11:24:20.762Z,20
2017-03-07T11:25:19.620Z,15
2017-03-07T11:26:20.071Z,20
2017-03-07T11:27:20.421Z,20
2017-03-07T11:28:20.445Z,20
2017-03-07T11:29:20.339Z,20
2017-03-07T11:30:20.402Z,15
2017-03-07T11:31:20.068Z,15
2017-03-07T11:32:19.986Z,10
2017-03-07T11:33:21.954Z,15
2017-03-07T11:34:20.448Z,15
2017-03-07T11:35:21.243Z,15
2017-03-07T11:36:20.513Z,15
2017-03-07T11:37:20.740Z,15
2017-03-07T11:38:19.620Z,20
2017-03-07T11:39:20.357Z,20
2017-03-07T11:40:20.447Z,25
2017-03-07T11:41:20.155Z,20
2017-03-07T11:42:19.880Z,20
2017-03-07T11:43:20.722Z,20
2017-03-07T11:44:20.345Z,20
2017-03-07T11:45:20.492Z,20
2017-03-07T11:46:21.713Z,15
2017-03-07T11:47:20.462Z,15
2017-03-07T11:48:20.962Z,15
2017-03-07T11:49:20.569Z,15
2017-03-07T11:50:20.588Z,10
2017-03-07T11:51:21.247Z,10
2017-03-07T11:52:20.007Z,10
2017-03-07T11:53:20.119Z,15
2017-03-07T11:54:19.836Z,15
2017-03-07T11:55:20.683Z,15
2017-03-07T11:56:20.605Z,20
2017-03-07T11:57:21.908Z,20
2017-03-07T11:58:20.256Z,20
2017-03-07T11:59:21.167Z,20
2017-03-07T12:00:20.632Z,20
2017-03-07T12:01:20.558Z,25
2017-03-07T12:02:19.837Z,25
2017-03-07T12:03:20.634Z,30
2017-03-07T12:04:20.624Z,35
2017-03-07T12:05:20.145Z,40
2017-03-07T12:06:20.552Z,45
2017-03-07T12:07:20.608Z,40
2017-03-07T12:08:20.654Z,35
2017-03-07T12:09:20.235Z,35
2017-03-07T12:10:21.673Z,35
2017-03-07T12:11:20.709Z,30
2017-03-07T12:12:20.348Z,30
2017-03-07T12:13:21.464Z,25
2017-03-07T12:14:20.669Z,25
2017-03-07T12:15:20.316Z,20
2017-03-07T12:16:20.713Z,20
2017-03-07T12:17:21.075Z,15
2017-03-07T12:18:20.494Z,15
2017-03-07T12:19:20.803Z,20
2017-03-07T12:20:20.720Z,20
2017-03-07T12:21:20.748Z,25
2017-03-07T12:22:20.385Z,25
2017-03-07T12:23:20.429Z,30
2017-03-07T12:24:20.290Z,25
2017-03-07T12:25:20.285Z,25
2017-03-07T12:26:20.735Z,20
2017-03-07T12:27:20.876Z,25
2017-03-07T12:28:21.203Z,25
2017-03-07T12:29:20.621Z,25
2017-03-07T12:30:20.517Z,25
2017-03-07T12:31:20.388Z,20
2017-03-07T12:32:20.512Z,20
2017-03-07T12:33:20.853Z,20
2017-03-07T12:34:22.155Z,20
2017-03-07T12:35:20.907Z,20
2017-03-07T12:36:20.804Z,20
2017-03-07T12:37:20.482Z,20
2017-03-07T12:38:20.785Z,20
2017-03-07T12:39:21.585Z,20
2017-03-07T12:40:20.889Z,20
2017-03-07T12:41:20.869Z,20
2017-03-07T12:42:20.845Z,20
2017-03-07T12:43:20.929Z,20
2017-03-07T12:44:20.912Z,20
2017-03-07T12:45:20.587Z,20
2017-03-07T12:46:20.651Z,20
2017-03-07T12:47:20.524Z,25
2017-03-07T12:48:20.540Z,25
2017-03-07T12:49:20.474Z,25
2017-03-07T12:50:21.724Z,30
2017-03-07T12:51:20.976Z,30
2017-03-07T12:52:21.270Z,35
2017-03-07T12:53:20.521Z,35
2017-03-07T12:54:20.712Z,30
2017-03-07T12:55:20.613Z,30
2017-03-07T12:56:21.059Z,30
2017-03-07T12:57:20.652Z,25
2017-03-07T12:58:20.971Z,25
2017-03-07T12:59:20.534Z,25
2017-03-07T13:00:20.971Z,25
2017-03-07T13:01:22.412Z,25
2017-03-07T13:02:20.596Z,20
2017-03-07T13:03:21.804Z,20
2017-03-07T13:04:20.269Z,25
2017-03-07T13:05:20.595Z,25
2017-03-07T13:06:19.874Z,20
2017-03-07T13:07:21.031Z,25
2017-03-07T13:08:20.636Z,20
2017-03-07T13:09:21.073Z,20
2017-03-07T13:10:21.040Z,15
2017-03-07T13:11:53.005Z,15
2017-03-07T13:12:22.963Z,15
2017-03-07T13:13:21.231Z,20
2017-03-07T13:14:22.331Z,15
2017-03-07T13:15:20.359Z,20
2017-03-07T13:16:21.123Z,20
2017-03-07T13:17:20.375Z,20
2017-03-07T13:18:21.133Z,20
2017-03-07T13:19:22.308Z,20
2017-03-07T13:20:21.123Z,20
2017-03-07T13:21:21.118Z,25
2017-03-07T13:22:21.148Z,25
2017-03-07T13:23:21.084Z,25
2017-03-07T13:24:20.850Z,20
2017-03-07T13:25:22.733Z,20
2017-03-07T13:26:21.093Z,25
2017-03-07T13:27:19.558Z,20
2017-03-07T13:28:21.175Z,15
2017-03-07T13:29:21.278Z,15
2017-03-07T13:30:21.235Z,15
2017-03-07T13:31:21.256Z,20
2017-03-07T13:32:21.309Z,20
2017-03-07T13:33:20.803Z,20
2017-03-07T13:34:21.116Z,20
2017-03-07T13:35:20.924Z,15
2017-03-07T13:36:21.203Z,10
2017-03-07T13:37:20.433Z,10
2017-03-07T13:38:21.362Z,10
2017-03-07T13:39:20.907Z,10
2017-03-07T13:40:21.271Z,10
2017-03-07T13:41:21.337Z,15
2017-03-07T13:42:21.294Z,15
2017-03-07T13:43:20.923Z,15
2017-03-07T13:44:21.244Z,20
2017-03-07T13:45:21.707Z,20
2017-03-07T13:46:21.297Z,20
2017-03-07T13:47:21.309Z,20
2017-03-07T13:48:21.263Z,15
2017-03-07T13:49:20.882Z,15
2017-03-07T13:50:21.443Z,15
2017-03-07T13:51:21.957Z,20
2017-03-07T13:52:21.434Z,25
2017-03-07T13:53:20.154Z,30
2017-03-07T13:54:21.369Z,35
2017-03-07T13:55:21.455Z,40
2017-03-07T13:56:22.114Z,35
2017-03-07T13:57:20.981Z,30
2017-03-07T13:58:21.576Z,25
2017-03-07T13:59:21.815Z,20
2017-03-07T14:00:21.343Z,15
2017-03-07T14:01:21.063Z,15
2017-03-07T14:02:21.082Z,10
2017-03-07T14:03:21.409Z,10
2017-03-07T14:04:21.465Z,5
2017-03-07T14:05:20.685Z,5
2017-03-07T14:06:21.443Z,5
2017-03-07T14:07:22.595Z,5
2017-03-07T14:08:21.471Z,5
2017-03-07T14:09:21.607Z,5
2017-03-07T14:10:21.665Z,5
2017-03-07T14:11:21.129Z,5
2017-03-07T14:12:21.111Z,5
2017-03-07T14:14:21.486Z,5
2017-03-07T14:15:21.655Z,5
2017-03-07T14:16:21.190Z,5
2017-03-07T14:17:21.517Z,5
2017-03-07T14:18:22.763Z,5
2017-03-07T14:19:21.545Z,5
2017-03-07T14:20:22.139Z,5
2017-03-07T14:21:22.354Z,0
2017-03-07T14:22:20.777Z,0
2017-03-07T14:23:20.773Z,0
2017-03-07T14:24:21.557Z,0
2017-03-07T14:25:21.221Z,0
2017-03-07T14:26:20.803Z,5
2017-03-07T14:27:20.928Z,5
2017-03-07T14:28:21.641Z,5
2017-03-07T14:29:23.307Z,5
2017-03-07T14:30:21.587Z,5
2017-03-07T14:31:22.539Z,5
2017-03-07T14:32:21.617Z,10
2017-03-07T14:33:21.578Z,10
2017-03-07T14:34:21.392Z,10
2017-03-07T14:35:21.381Z,15
2017-03-07T14:36:21.239Z,20